Time;durP1;ratioP1;P1;durP2;ratioP2;P2;SDS_P1;SDS_P2;PMS_P1;PMS_P2;Temp;Humidity;BMP_temperature;BMP_pressure;BME280_temperature;BME280_humidity;BME280_pressure;Samples;Min_cycle;Max_cycle;Signal;HPM_P1;HPM_P2
2021/07/20 00:01:53;;;;;;;44.30;8.57;;;25.30;70.10;;;;;;4985206;28;20030;-59
2021/07/20 00:04:18;;;;;;;44.15;8.27;;;25.30;70.20;;;;;;4987377;28;20054;-59
2021/07/20 00:06:44;;;;;;;33.20;7.43;;;25.20;70.20;;;;;;4988065;28;20060;-59
2021/07/20 00:09:11;;;;;;;41.38;7.82;;;25.20;70.20;;;;;;4985459;28;20114;-59
2021/07/20 00:11:36;;;;;;;32.47;7.85;;;25.20;70.10;;;;;;4971291;28;20481;-59
2021/07/20 00:14:02;;;;;;;33.72;7.32;;;25.20;70.10;;;;;;4987638;28;20163;-60
2021/07/20 00:16:28;;;;;;;41.67;7.18;;;25.10;70.10;;;;;;4947010;28;20030;-62
2021/07/20 00:18:53;;;;;;;28.52;6.80;;;25.10;70.20;;;;;;4989242;28;20018;-63
2021/07/20 00:21:19;;;;;;;28.38;6.68;;;25.10;70.20;;;;;;4987421;28;20344;-60
2021/07/20 00:23:44;;;;;;;26.27;7.15;;;25.10;70.20;;;;;;5004901;28;20084;-60
2021/07/20 00:26:10;;;;;;;31.75;7.43;;;25.00;70.20;;;;;;4986646;28;20117;-60
2021/07/20 00:28:36;;;;;;;29.17;7.38;;;25.00;70.30;;;;;;4984946;28;20490;-60
2021/07/20 00:31:01;;;;;;;37.30;7.07;;;25.00;70.30;;;;;;4986544;28;20359;-60
2021/07/20 00:33:27;;;;;;;22.38;7.55;;;25.00;70.40;;;;;;4995845;28;20812;-60
2021/07/20 00:35:52;;;;;;;17.50;5.90;;;24.90;70.40;;;;;;4987096;28;20097;-60
2021/07/20 00:38:18;;;;;;;35.63;7.30;;;24.90;70.40;;;;;;4997646;28;20133;-60
2021/07/20 00:40:43;;;;;;;22.67;5.75;;;24.90;70.40;;;;;;4986565;28;20117;-60
2021/07/20 00:43:10;;;;;;;23.10;6.20;;;24.90;70.40;;;;;;4987977;28;20061;-60
2021/07/20 00:45:36;;;;;;;22.42;6.40;;;24.80;70.40;;;;;;4982710;28;20166;-60
2021/07/20 00:48:02;;;;;;;17.35;6.13;;;24.80;70.50;;;;;;4988675;28;20090;-60
2021/07/20 00:50:39;;;;;;;22.70;6.70;;;24.80;70.60;;;;;;5002764;28;20046;-60
2021/07/20 00:53:05;;;;;;;21.70;6.88;;;24.80;70.70;;;;;;4986866;28;20442;-60
2021/07/20 00:55:35;;;;;;;19.55;6.25;;;24.80;70.80;;;;;;4985137;28;20049;-60
2021/07/20 00:58:01;;;;;;;18.58;5.95;;;24.70;70.80;;;;;;4970656;28;20026;-60
2021/07/20 01:00:26;;;;;;;10.45;5.70;;;24.70;70.80;;;;;;4984820;28;20026;-60
2021/07/20 01:02:52;;;;;;;13.77;6.28;;;24.70;70.90;;;;;;4987088;28;20030;-60
2021/07/20 01:05:22;;;;;;;16.05;6.10;;;24.60;70.90;;;;;;4983831;28;20049;-60
2021/07/20 01:07:47;;;;;;;14.00;5.50;;;24.60;70.90;;;;;;4986831;28;20042;-60
2021/07/20 01:10:14;;;;;;;15.10;5.32;;;24.60;70.90;;;;;;4985770;28;20030;-60
2021/07/20 01:12:41;;;;;;;14.23;5.72;;;24.60;71.10;;;;;;4987644;28;20060;-59
2021/07/20 01:15:08;;;;;;;15.30;5.82;;;24.50;71.10;;;;;;4986415;28;20038;-60
2021/07/20 01:17:37;;;;;;;21.90;6.15;;;24.50;71.10;;;;;;4985377;28;20111;-60
2021/07/20 01:20:11;;;;;;;16.70;5.50;;;24.50;71.20;;;;;;4982825;28;20026;-59
2021/07/20 01:22:36;;;;;;;16.20;6.15;;;24.50;71.30;;;;;;4985021;28;20022;-60
2021/07/20 01:25:09;;;;;;;14.63;6.50;;;24.50;71.30;;;;;;4987195;28;20282;-59
2021/07/20 01:27:36;;;;;;;15.35;5.97;;;24.40;71.30;;;;;;4991382;28;20042;-60
2021/07/20 01:30:02;;;;;;;13.70;6.18;;;24.40;71.40;;;;;;5000295;28;20042;-60
2021/07/20 01:32:27;;;;;;;11.57;6.50;;;24.40;71.50;;;;;;4984969;28;20084;-60
2021/07/20 01:34:53;;;;;;;11.95;6.10;;;24.40;71.40;;;;;;4984678;28;20402;-59
2021/07/20 01:37:18;;;;;;;9.15;6.05;;;24.30;71.40;;;;;;4985215;28;20042;-59
2021/07/20 01:39:44;;;;;;;11.30;6.13;;;24.40;71.40;;;;;;4962943;28;20038;-60
2021/07/20 01:42:09;;;;;;;11.45;6.97;;;24.30;71.40;;;;;;4985336;28;20023;-60
2021/07/20 01:44:35;;;;;;;11.10;6.57;;;24.30;71.40;;;;;;4985012;28;20026;-59
2021/07/20 01:47:01;;;;;;;13.15;6.93;;;24.30;71.40;;;;;;4986038;28;20035;-59
2021/07/20 01:49:27;;;;;;;10.20;6.40;;;24.20;71.50;;;;;;4987274;28;20026;-60
2021/07/20 01:51:53;;;;;;;12.32;6.70;;;24.20;71.50;;;;;;4987132;28;20015;-60
2021/07/20 01:54:18;;;;;;;10.88;6.50;;;24.20;71.60;;;;;;4987676;28;20519;-60
2021/07/20 01:56:46;;;;;;;11.48;6.88;;;24.10;71.60;;;;;;4985881;28;20041;-60
2021/07/20 01:59:11;;;;;;;13.90;6.97;;;24.10;71.60;;;;;;4977651;28;20390;-60
2021/07/20 02:01:44;;;;;;;12.85;6.80;;;24.10;71.60;;;;;;4984910;28;20022;-60
2021/07/20 02:09:38;;;;;;;9.90;6.65;;;24.00;71.80;;;;;;4987025;28;20065;-60
2021/07/20 02:12:12;;;;;;;12.13;6.47;;;24.00;71.80;;;;;;4984336;28;20034;-60
2021/07/20 02:14:41;;;;;;;9.23;6.78;;;24.00;72.00;;;;;;4985634;28;20415;-59
2021/07/20 02:17:07;;;;;;;14.57;6.85;;;24.00;72.00;;;;;;4988883;28;20022;-60
2021/07/20 02:19:34;;;;;;;12.60;7.30;;;23.90;72.00;;;;;;4966663;28;20061;-60
2021/07/20 02:22:01;;;;;;;10.15;7.43;;;23.90;72.00;;;;;;4987892;28;20018;-60
2021/07/20 02:24:32;;;;;;;8.50;6.72;;;23.90;72.00;;;;;;4972435;28;20089;-59
2021/07/20 02:27:03;;;;;;;9.30;6.72;;;23.90;72.20;;;;;;4986207;28;20113;-61
2021/07/20 02:29:28;;;;;;;8.98;6.57;;;23.80;72.20;;;;;;4972865;28;20034;-60
2021/07/20 02:31:56;;;;;;;9.98;7.20;;;23.80;72.40;;;;;;4989065;28;20030;-59
2021/07/20 02:34:21;;;;;;;11.82;7.25;;;23.80;72.40;;;;;;4989273;28;20029;-60
2021/07/20 02:36:47;;;;;;;9.05;7.13;;;23.70;72.40;;;;;;4988308;28;20034;-60
2021/07/20 02:39:12;;;;;;;11.35;8.13;;;23.80;72.60;;;;;;4988279;28;20108;-60
2021/07/20 02:41:39;;;;;;;11.32;7.15;;;23.70;72.60;;;;;;4973006;28;20026;-60
2021/07/20 02:44:06;;;;;;;11.43;7.18;;;23.70;72.70;;;;;;4968598;28;20033;-60
2021/07/20 02:46:31;;;;;;;9.27;7.45;;;23.60;72.70;;;;;;4987830;28;20022;-60
2021/07/20 02:48:57;;;;;;;8.40;6.80;;;23.60;72.60;;;;;;4988378;28;20033;-60
2021/07/20 02:51:23;;;;;;;14.27;7.90;;;23.60;72.70;;;;;;4987630;28;20069;-60
2021/07/20 02:53:51;;;;;;;10.35;7.43;;;23.60;72.80;;;;;;4972806;28;20058;-60
2021/07/20 02:56:16;;;;;;;10.55;7.60;;;23.50;72.90;;;;;;4989405;28;20080;-60
2021/07/20 02:58:43;;;;;;;9.45;7.60;;;23.50;73.00;;;;;;4990164;28;20026;-60
2021/07/20 03:01:09;;;;;;;12.77;7.47;;;23.40;73.00;;;;;;4986702;28;20046;-60
2021/07/20 03:03:35;;;;;;;13.25;7.72;;;23.40;73.10;;;;;;4971037;28;20061;-60
2021/07/20 03:06:00;;;;;;;9.10;7.75;;;23.40;73.20;;;;;;4989177;28;20595;-60
2021/07/20 03:08:28;;;;;;;11.82;7.75;;;23.40;73.20;;;;;;4988280;28;20105;-60
2021/07/20 03:10:57;;;;;;;9.52;7.40;;;23.40;73.40;;;;;;4978803;28;20470;-60
2021/07/20 03:13:24;;;;;;;9.13;7.53;;;23.30;73.40;;;;;;4973025;28;20030;-59
2021/07/20 03:15:49;;;;;;;13.55;7.97;;;23.30;73.50;;;;;;4987415;28;20026;-60
2021/07/20 03:18:15;;;;;;;10.07;7.72;;;23.30;73.60;;;;;;4971568;28;20197;-60
2021/07/20 03:20:40;;;;;;;9.85;7.65;;;23.20;73.60;;;;;;4987838;28;20068;-60
2021/07/20 03:23:06;;;;;;;8.23;7.32;;;23.20;73.70;;;;;;4972779;28;20335;-60
2021/07/20 03:25:31;;;;;;;12.05;7.40;;;23.20;73.80;;;;;;4988002;28;20462;-60
2021/07/20 03:27:57;;;;;;;8.43;7.50;;;23.10;73.80;;;;;;4984320;28;20116;-60
2021/07/20 03:30:24;;;;;;;8.20;7.32;;;23.10;73.80;;;;;;4986564;28;20062;-60
2021/07/20 03:32:50;;;;;;;8.90;8.00;;;23.10;73.90;;;;;;5004050;28;20301;-60
2021/07/20 03:35:16;;;;;;;11.60;7.97;;;23.10;74.00;;;;;;4997728;28;20050;-60
2021/07/20 03:37:41;;;;;;;10.38;7.93;;;23.00;74.10;;;;;;4986938;28;20057;-60
2021/07/20 03:40:08;;;;;;;9.27;7.97;;;23.00;74.20;;;;;;4987701;28;20173;-59
2021/07/20 03:42:33;;;;;;;11.23;7.47;;;23.00;74.20;;;;;;4986283;28;20122;-59
2021/07/20 03:44:59;;;;;;;11.73;8.60;;;23.00;74.30;;;;;;4987497;28;20026;-60
2021/07/20 03:47:24;;;;;;;9.45;8.40;;;22.90;74.30;;;;;;4971867;28;20034;-60
2021/07/20 03:49:50;;;;;;;9.75;8.55;;;22.90;74.30;;;;;;4987578;28;20062;-60
2021/07/20 03:52:15;;;;;;;12.65;7.78;;;22.90;74.40;;;;;;4970460;28;20034;-60
2021/07/20 03:54:41;;;;;;;10.40;7.57;;;22.90;74.50;;;;;;4985249;28;20026;-59
2021/07/20 03:57:07;;;;;;;11.07;8.35;;;22.90;74.50;;;;;;4987687;28;20078;-60
2021/07/20 03:59:33;;;;;;;10.68;8.75;;;22.80;74.50;;;;;;4987308;28;20045;-60
2021/07/20 04:02:00;;;;;;;8.85;7.90;;;22.80;74.50;;;;;;4988736;28;20026;-59
2021/07/20 04:04:26;;;;;;;9.75;8.40;;;22.80;74.60;;;;;;4987566;28;20312;-60
2021/07/20 04:06:51;;;;;;;11.02;8.30;;;22.70;74.60;;;;;;4986682;28;20073;-59
2021/07/20 04:09:17;;;;;;;8.80;7.65;;;22.70;74.70;;;;;;4986398;28;20034;-60
2021/07/20 04:11:42;;;;;;;8.73;7.80;;;22.70;74.80;;;;;;4987301;28;20033;-60
2021/07/20 04:14:09;;;;;;;12.40;8.88;;;22.70;74.80;;;;;;4987449;28;20045;-60
2021/07/20 04:16:35;;;;;;;9.52;8.52;;;22.70;74.80;;;;;;4970107;28;20130;-60
2021/07/20 04:19:00;;;;;;;11.13;8.93;;;22.60;74.80;;;;;;4996750;28;20022;-60
2021/07/20 04:21:26;;;;;;;10.60;8.48;;;22.60;74.80;;;;;;4986425;28;20526;-60
2021/07/20 04:23:51;;;;;;;10.88;8.07;;;22.60;74.90;;;;;;4987585;28;20019;-60
2021/07/20 04:26:18;;;;;;;11.07;8.88;;;22.60;74.90;;;;;;4988678;28;20030;-59
2021/07/20 04:28:43;;;;;;;10.68;9.25;;;22.60;75.00;;;;;;4986034;28;20473;-64
2021/07/20 04:31:09;;;;;;;9.75;8.75;;;22.60;75.00;;;;;;4962715;28;20042;-60
2021/07/20 04:33:35;;;;;;;13.70;9.73;;;22.60;75.10;;;;;;4985685;28;20043;-62
2021/07/20 04:36:01;;;;;;;11.00;9.25;;;22.60;75.10;;;;;;4985254;28;20646;-60
2021/07/20 04:38:30;;;;;;;10.15;9.00;;;22.50;75.10;;;;;;4982551;28;20560;-60
2021/07/20 04:40:56;;;;;;;11.35;9.45;;;22.50;75.30;;;;;;4953749;28;20061;-60
2021/07/20 04:43:21;;;;;;;9.85;8.85;;;22.50;75.30;;;;;;4985135;28;20552;-60
2021/07/20 04:45:47;;;;;;;14.48;9.25;;;22.40;75.40;;;;;;4967020;28;20018;-60
2021/07/20 04:48:13;;;;;;;11.23;9.15;;;22.40;75.50;;;;;;4984378;28;20041;-59
2021/07/20 04:50:39;;;;;;;9.50;8.60;;;22.40;75.50;;;;;;4968542;28;20030;-60
2021/07/20 04:53:05;;;;;;;11.38;9.70;;;22.40;75.60;;;;;;4985457;28;20061;-60
2021/07/20 04:55:31;;;;;;;10.70;9.45;;;22.30;75.60;;;;;;4968743;28;20485;-59
2021/07/20 04:57:57;;;;;;;14.00;9.07;;;22.30;75.70;;;;;;5000916;28;20109;-60
2021/07/20 05:00:23;;;;;;;11.10;9.73;;;22.30;75.70;;;;;;4984737;28;20135;-60
2021/07/20 05:02:49;;;;;;;11.30;10.10;;;22.30;75.80;;;;;;4986657;28;20453;-60
2021/07/20 05:05:15;;;;;;;10.25;9.20;;;22.30;75.90;;;;;;4986021;28;20030;-60
2021/07/20 05:07:40;;;;;;;10.90;9.68;;;22.30;75.90;;;;;;4987644;28;20030;-60
2021/07/20 05:10:06;;;;;;;11.75;9.18;;;22.30;76.00;;;;;;4981105;28;20045;-60
2021/07/20 05:12:31;;;;;;;12.10;9.63;;;22.20;75.90;;;;;;4986545;28;20527;-60
2021/07/20 05:14:57;;;;;;;12.48;9.68;;;22.20;76.00;;;;;;4969534;28;20446;-60
2021/07/20 05:17:23;;;;;;;11.68;9.63;;;22.20;75.90;;;;;;4983379;28;20026;-60
2021/07/20 05:19:49;;;;;;;11.40;10.20;;;22.30;76.10;;;;;;4986110;28;20038;-59
2021/07/20 05:22:14;;;;;;;12.35;9.43;;;22.20;76.00;;;;;;4968529;28;20033;-59
2021/07/20 05:24:40;;;;;;;14.77;10.07;;;22.20;76.00;;;;;;4982888;28;20050;-60
2021/07/20 05:27:05;;;;;;;12.63;10.18;;;22.20;76.00;;;;;;4997444;28;20117;-60
2021/07/20 05:29:31;;;;;;;11.50;10.30;;;22.20;76.10;;;;;;4985021;28;20097;-59
2021/07/20 05:31:56;;;;;;;11.35;9.75;;;22.20;76.20;;;;;;4968030;28;20058;-59
2021/07/20 05:34:22;;;;;;;11.77;10.25;;;22.20;76.20;;;;;;4985657;28;20080;-59
2021/07/20 05:36:48;;;;;;;11.75;10.32;;;22.10;76.10;;;;;;4966842;28;20145;-59
2021/07/20 05:39:13;;;;;;;10.80;9.80;;;22.20;76.20;;;;;;4980966;28;20094;-59
2021/07/20 05:41:42;;;;;;;13.38;10.55;;;22.10;76.10;;;;;;4983254;28;20027;-60
2021/07/20 05:44:14;;;;;;;15.15;10.95;;;22.10;76.10;;;;;;4978822;28;20032;-60
2021/07/20 05:46:43;;;;;;;14.25;10.43;;;22.10;76.20;;;;;;4985534;28;20034;-60
2021/07/20 05:49:10;;;;;;;11.90;9.77;;;22.10;76.20;;;;;;4988082;28;20050;-59
2021/07/20 05:51:39;;;;;;;15.77;10.55;;;22.10;76.20;;;;;;4984900;28;20031;-60
2021/07/20 05:54:05;;;;;;;14.95;10.43;;;22.10;76.10;;;;;;4982153;28;20027;-60
2021/07/20 05:56:31;;;;;;;11.75;10.07;;;22.10;76.20;;;;;;4993924;28;20456;-60
2021/07/20 05:58:58;;;;;;;14.32;10.27;;;22.10;76.20;;;;;;4987641;28;20014;-59
2021/07/20 06:01:23;;;;;;;13.68;10.80;;;22.10;76.20;;;;;;4984412;28;20100;-60
2021/07/20 06:03:51;;;;;;;11.55;10.02;;;22.10;76.30;;;;;;4984095;28;20442;-60
2021/07/20 06:06:17;;;;;;;12.55;10.90;;;22.10;76.30;;;;;;4968768;28;20083;-60
2021/07/20 06:08:43;;;;;;;14.35;10.50;;;22.00;76.40;;;;;;4975042;28;20023;-59
2021/07/20 06:11:09;;;;;;;13.88;11.68;;;22.00;76.40;;;;;;4982311;28;20035;-59
2021/07/20 06:13:40;;;;;;;15.00;11.48;;;22.00;76.50;;;;;;4972821;28;20046;-60
2021/07/20 06:16:05;;;;;;;14.52;12.18;;;22.00;76.60;;;;;;4999526;28;20038;-60
2021/07/20 06:18:31;;;;;;;13.65;11.13;;;22.00;76.60;;;;;;4981530;28;20041;-59
2021/07/20 06:20:58;;;;;;;12.25;10.95;;;22.00;76.60;;;;;;4981950;28;20096;-60
2021/07/20 06:23:24;;;;;;;16.15;11.48;;;22.00;76.70;;;;;;4969242;28;20038;-60
2021/07/20 06:25:51;;;;;;;12.77;11.32;;;21.90;76.90;;;;;;4968335;28;20041;-59
2021/07/20 06:28:16;;;;;;;17.40;11.50;;;22.00;76.80;;;;;;4985168;28;20510;-60
2021/07/20 06:30:44;;;;;;;17.67;11.65;;;22.00;77.00;;;;;;4967181;28;20045;-59
2021/07/20 06:33:10;;;;;;;18.80;12.32;;;21.90;77.00;;;;;;4984860;28;20066;-60
2021/07/20 06:35:37;;;;;;;22.17;12.90;;;22.00;77.00;;;;;;4982409;28;20030;-59
2021/07/20 06:38:03;;;;;;;25.95;12.77;;;22.00;77.60;;;;;;4960560;28;20035;-59
2021/07/20 06:40:28;;;;;;;21.85;12.25;;;22.00;77.30;;;;;;4984254;28;20466;-59
2021/07/20 06:42:54;;;;;;;32.65;13.85;;;22.00;77.30;;;;;;4977059;28;20043;-60
2021/07/20 06:45:20;;;;;;;27.33;13.70;;;22.00;77.70;;;;;;4997098;28;20486;-60
2021/07/20 06:47:46;;;;;;;26.55;12.75;;;22.00;77.50;;;;;;4986318;28;20037;-60
2021/07/20 06:50:14;;;;;;;27.42;13.05;;;22.00;77.60;;;;;;4984184;28;20462;-60
2021/07/20 06:52:41;;;;;;;28.98;12.52;;;22.00;77.60;;;;;;4949691;28;20034;-60
2021/07/20 06:55:07;;;;;;;40.60;14.30;;;22.00;77.70;;;;;;4982272;28;20134;-59
2021/07/20 06:57:32;;;;;;;157.73;21.30;;;22.00;77.80;;;;;;4982443;28;20117;-60
2021/07/20 06:59:58;;;;;;;99.15;19.20;;;22.00;78.20;;;;;;4982684;28;20107;-59
2021/07/20 07:02:24;;;;;;;69.97;16.15;;;22.00;78.50;;;;;;4985590;28;20104;-59
2021/07/20 07:05:06;;;;;;;69.70;17.23;;;22.00;78.60;;;;;;4988105;28;20030;-59
2021/07/20 07:07:31;;;;;;;51.45;16.05;;;22.00;79.10;;;;;;4982723;28;20097;-59
2021/07/20 07:10:01;;;;;;;46.40;16.05;;;21.90;79.30;;;;;;4985885;28;20478;-60
2021/07/20 07:12:27;;;;;;;38.83;15.75;;;21.90;79.60;;;;;;4971519;28;20563;-60
2021/07/20 07:14:52;;;;;;;41.67;15.05;;;21.90;79.90;;;;;;4988775;28;20189;-59
2021/07/20 07:17:18;;;;;;;52.53;16.70;;;21.90;80.10;;;;;;4971658;28;20117;-60
2021/07/20 07:19:45;;;;;;;41.95;15.45;;;21.80;80.40;;;;;;4988181;28;20033;-59
2021/07/20 07:22:11;;;;;;;54.70;15.80;;;21.90;80.50;;;;;;4969407;28;20136;-59
2021/07/20 07:24:36;;;;;;;58.90;15.02;;;21.90;80.60;;;;;;4969043;28;20486;-60
2021/07/20 07:27:02;;;;;;;53.50;15.52;;;21.90;80.90;;;;;;4987030;28;20030;-59
2021/07/20 07:29:28;;;;;;;78.70;19.13;;;21.80;81.00;;;;;;4972621;28;20049;-60
2021/07/20 07:31:53;;;;;;;42.55;16.58;;;21.80;81.00;;;;;;5004230;28;20069;-59
2021/07/20 07:34:19;;;;;;;27.88;14.82;;;21.80;81.20;;;;;;4981453;28;20049;-60
2021/07/20 07:36:46;;;;;;;49.50;15.93;;;21.80;81.30;;;;;;4985422;28;20075;-60
2021/07/20 07:39:12;;;;;;;45.08;15.75;;;21.80;81.70;;;;;;4985313;28;20243;-60
2021/07/20 07:41:39;;;;;;;37.22;15.20;;;21.80;81.80;;;;;;4987068;28;20038;-59
2021/07/20 07:44:14;;;;;;;37.78;14.82;;;21.80;82.20;;;;;;4983453;28;20037;-59
2021/07/20 07:46:40;;;;;;;42.05;14.27;;;21.80;82.10;;;;;;4981724;28;20081;-60
2021/07/20 07:49:08;;;;;;;46.55;15.07;;;21.80;83.00;;;;;;5003476;28;20022;-60
2021/07/20 07:51:33;;;;;;;56.33;17.42;;;21.80;82.30;;;;;;4994338;28;20015;-64
2021/07/20 07:53:59;;;;;;;38.83;15.77;;;21.80;82.30;;;;;;4984537;28;20030;-60
2021/07/20 07:56:28;;;;;;;36.05;15.43;;;21.90;82.30;;;;;;4988364;28;20049;-63
2021/07/20 07:58:55;;;;;;;37.72;14.90;;;21.90;82.40;;;;;;4973643;28;20092;-60
2021/07/20 08:01:20;;;;;;;32.22;15.05;;;21.90;82.50;;;;;;4965199;28;20054;-60
2021/07/20 08:03:46;;;;;;;40.97;16.25;;;21.90;82.70;;;;;;4983946;28;20077;-60
2021/07/20 08:06:19;;;;;;;27.98;14.00;;;21.90;82.50;;;;;;4973556;28;20126;-59
2021/07/20 08:08:44;;;;;;;41.88;14.50;;;21.90;82.30;;;;;;4981115;28;20037;-60
2021/07/20 08:11:11;;;;;;;43.30;15.35;;;21.90;82.30;;;;;;4985687;28;20076;-59
2021/07/20 08:13:38;;;;;;;35.85;14.85;;;22.00;82.20;;;;;;4992749;28;20205;-60
2021/07/20 08:16:05;;;;;;;51.67;14.80;;;22.00;82.10;;;;;;4986828;28;20023;-59
2021/07/20 08:18:30;;;;;;;52.00;16.27;;;22.00;82.10;;;;;;4980050;28;20340;-60
2021/07/20 08:21:06;;;;;;;53.13;16.30;;;22.00;82.70;;;;;;4984622;28;20027;-59
2021/07/20 08:23:32;;;;;;;72.35;18.52;;;22.00;82.60;;;;;;4982227;28;20162;-59
2021/07/20 08:26:09;;;;;;;69.32;18.30;;;22.00;82.40;;;;;;4982678;28;20509;-60
2021/07/20 08:28:47;;;;;;;64.85;17.63;;;22.10;83.10;;;;;;4981308;28;20046;-60
2021/07/20 08:31:13;;;;;;;69.00;16.73;;;22.10;82.60;;;;;;4997549;28;20073;-60
2021/07/20 08:33:42;;;;;;;66.28;16.42;;;22.10;82.60;;;;;;4983117;28;20057;-60
2021/07/20 08:36:08;;;;;;;58.03;15.80;;;22.10;82.50;;;;;;4978566;28;20148;-59
2021/07/20 08:38:35;;;;;;;53.42;15.93;;;22.10;82.30;;;;;;4982346;28;20137;-60
2021/07/20 08:41:08;;;;;;;45.28;14.98;;;22.10;82.60;;;;;;4988377;28;20060;-60
2021/07/20 08:44:08;;;;;;;42.65;14.52;;;22.20;82.50;;;;;;4984398;28;20038;-59
2021/07/20 08:46:57;;;;;;;52.88;15.07;;;22.20;82.50;;;;;;4982062;28;20023;-60
2021/07/20 08:49:46;;;;;;;35.03;15.35;;;22.20;82.70;;;;;;4996930;28;20034;-59
2021/07/20 08:52:15;;;;;;;39.90;14.32;;;22.20;82.60;;;;;;4982770;28;20036;-60
2021/07/20 08:55:10;;;;;;;42.53;15.05;;;22.30;82.40;;;;;;4976838;28;20039;-59
2021/07/20 08:57:43;;;;;;;42.10;15.68;;;22.30;82.30;;;;;;4960652;28;20148;-60
2021/07/20 09:00:10;;;;;;;53.25;15.30;;;22.30;82.50;;;;;;4978528;28;20018;-60
2021/07/20 09:02:38;;;;;;;28.80;14.80;;;22.30;82.20;;;;;;4977911;28;20038;-60
2021/07/20 09:05:04;;;;;;;46.95;14.40;;;22.30;82.20;;;;;;4995013;28;20027;-59
2021/07/20 09:07:34;;;;;;;81.30;17.75;;;22.40;82.10;;;;;;4979822;28;20044;-60
2021/07/20 09:10:00;;;;;;;58.88;16.13;;;22.40;82.50;;;;;;4962348;28;20273;-60
2021/07/20 09:12:30;;;;;;;66.38;16.20;;;22.40;82.40;;;;;;4977349;28;20049;-60
2021/07/20 09:15:09;;;;;;;66.05;17.27;;;22.40;82.20;;;;;;4978390;28;20430;-60
2021/07/20 09:18:00;;;;;;;67.85;18.02;;;22.50;82.30;;;;;;4978385;28;20193;-60
2021/07/20 09:20:29;;;;;;;69.57;16.58;;;22.50;82.20;;;;;;4976715;28;20514;-60
2021/07/20 09:23:03;;;;;;;60.67;17.27;;;22.50;82.30;;;;;;4978733;28;20030;-61
2021/07/20 09:25:31;;;;;;;54.53;15.60;;;22.50;82.30;;;;;;4978626;28;20068;-59
2021/07/20 09:28:35;;;;;;;57.75;15.93;;;22.50;82.20;;;;;;4980857;28;20026;-59
2021/07/20 09:31:01;;;;;;;72.40;17.33;;;22.60;82.30;;;;;;4979101;28;20096;-60
2021/07/20 09:33:45;;;;;;;52.35;17.55;;;22.60;82.20;;;;;;4977585;28;20482;-60
2021/07/20 09:36:25;;;;;;;66.00;17.40;;;22.60;82.10;;;;;;4977588;28;20053;-60
2021/07/20 09:39:10;;;;;;;58.75;17.48;;;22.60;82.20;;;;;;4977134;28;20050;-60
2021/07/20 09:41:50;;;;;;;46.97;15.77;;;22.70;82.00;;;;;;4979904;28;20034;-60
2021/07/20 09:44:32;;;;;;;66.28;16.05;;;22.70;81.80;;;;;;4979989;28;20043;-60
2021/07/20 09:46:57;;;;;;;37.85;14.82;;;22.70;81.70;;;;;;4980252;28;20049;-60
2021/07/20 09:49:38;;;;;;;41.40;13.75;;;22.70;81.70;;;;;;4980241;28;20034;-60
2021/07/20 09:52:38;;;;;;;54.85;14.60;;;22.80;81.60;;;;;;4980529;28;20038;-60
2021/07/20 09:55:23;;;;;;;89.90;18.52;;;22.80;81.50;;;;;;4981005;28;20038;-60
2021/07/20 09:57:48;;;;;;;53.03;16.35;;;22.90;81.50;;;;;;4980309;28;20015;-59
2021/07/20 10:00:27;;;;;;;73.07;17.75;;;22.90;81.50;;;;;;4980318;28;20049;-60
2021/07/20 10:03:16;;;;;;;79.82;17.52;;;22.90;81.30;;;;;;4977015;28;21436;-60
2021/07/20 10:05:58;;;;;;;63.38;16.02;;;22.90;81.20;;;;;;4980083;28;20185;-60
2021/07/20 10:08:34;;;;;;;65.70;15.70;;;22.90;81.00;;;;;;4977141;28;20041;-60
2021/07/20 10:11:13;;;;;;;62.15;14.90;;;23.00;80.80;;;;;;4977906;28;20305;-60
2021/07/20 10:13:52;;;;;;;59.90;15.50;;;23.00;80.70;;;;;;4962667;28;20667;-60
2021/07/20 10:16:50;;;;;;;51.78;15.27;;;23.00;80.70;;;;;;4975519;28;20486;-60
2021/07/20 10:19:42;;;;;;;38.30;14.48;;;23.10;80.50;;;;;;4958257;28;20109;-60
2021/07/20 10:22:09;;;;;;;63.80;15.32;;;23.10;80.30;;;;;;4979019;28;20089;-60
2021/07/20 10:24:35;;;;;;;74.05;16.60;;;23.10;80.20;;;;;;4975766;28;20039;-60
2021/07/20 10:27:27;;;;;;;49.70;15.30;;;23.10;79.90;;;;;;4961079;28;20465;-60
2021/07/20 10:30:08;;;;;;;57.60;14.25;;;23.20;79.90;;;;;;4959612;28;20042;-60
2021/07/20 10:32:55;;;;;;;41.05;14.98;;;23.20;79.60;;;;;;4979477;28;20042;-60
2021/07/20 10:35:28;;;;;;;51.35;14.65;;;23.20;79.50;;;;;;4976657;28;20042;-60
2021/07/20 10:37:54;;;;;;;42.47;13.80;;;23.20;79.20;;;;;;4995038;28;20051;-61
2021/07/20 10:40:20;;;;;;;37.72;13.88;;;23.30;79.10;;;;;;4981659;28;20052;-62
2021/07/20 10:43:08;;;;;;;32.15;13.20;;;23.30;79.00;;;;;;4979777;28;20042;-62
2021/07/20 10:45:34;;;;;;;35.30;13.90;;;23.40;78.70;;;;;;4980835;28;20343;-60
2021/07/20 10:48:05;;;;;;;35.25;13.32;;;23.50;78.60;;;;;;4982080;28;20173;-60
2021/07/20 10:50:56;;;;;;;33.38;12.88;;;23.50;78.10;;;;;;4981714;28;20066;-60
2021/07/20 10:53:43;;;;;;;33.78;13.55;;;23.50;77.70;;;;;;4980639;28;20030;-60
2021/07/20 10:56:24;;;;;;;24.23;12.75;;;23.70;77.40;;;;;;4981027;28;20461;-60
2021/07/20 10:59:05;;;;;;;34.25;13.10;;;23.70;77.20;;;;;;4981116;28;20027;-60
2021/07/20 11:01:34;;;;;;;32.65;11.65;;;23.70;76.80;;;;;;4981137;28;20026;-60
2021/07/20 11:04:15;;;;;;;34.90;12.30;;;23.80;76.70;;;;;;4979353;28;20030;-61
2021/07/20 11:06:41;;;;;;;39.00;14.15;;;23.80;76.70;;;;;;4981359;28;20042;-60
2021/07/20 11:09:12;;;;;;;42.53;13.27;;;23.80;76.60;;;;;;4981640;28;20034;-60
2021/07/20 11:11:44;;;;;;;34.00;12.60;;;23.90;76.50;;;;;;4981930;28;20092;-60
2021/07/20 11:14:09;;;;;;;42.88;13.23;;;23.90;76.30;;;;;;4980513;28;20030;-60
2021/07/20 11:16:35;;;;;;;33.70;13.02;;;24.00;76.30;;;;;;4979235;28;20166;-60
2021/07/20 11:19:01;;;;;;;35.08;12.63;;;24.10;75.90;;;;;;4981300;28;20042;-60
2021/07/20 11:21:26;;;;;;;64.45;15.68;;;24.10;75.70;;;;;;4980078;28;20029;-60
2021/07/20 11:23:52;;;;;;;54.60;13.38;;;24.20;75.30;;;;;;4982171;28;20537;-62
2021/07/20 11:26:17;;;;;;;82.65;16.58;;;24.30;75.10;;;;;;4982378;28;20473;-60
2021/07/20 11:28:44;;;;;;;57.38;15.32;;;24.40;74.90;;;;;;4981122;28;20426;-61
2021/07/20 11:31:12;;;;;;;63.88;15.05;;;24.50;74.70;;;;;;4980071;28;20038;-59
2021/07/20 11:33:39;;;;;;;63.25;15.35;;;24.60;74.20;;;;;;4979579;28;20026;-60
2021/07/20 11:36:05;;;;;;;48.30;14.50;;;24.70;73.80;;;;;;4964374;28;20045;-60
2021/07/20 11:38:33;;;;;;;107.18;19.02;;;24.80;73.60;;;;;;4981256;28;20171;-60
2021/07/20 11:41:36;;;;;;;58.42;15.27;;;24.80;73.30;;;;;;4981878;28;20062;-61
2021/07/20 11:44:23;;;;;;;64.15;15.40;;;24.90;72.90;;;;;;4981614;28;20046;-61
2021/07/20 11:47:01;;;;;;;66.68;14.93;;;25.10;72.30;;;;;;4978283;28;20445;-60
2021/07/20 11:49:43;;;;;;;54.72;15.10;;;25.20;72.00;;;;;;4981739;28;20117;-60
2021/07/20 11:52:14;;;;;;;58.72;14.93;;;25.20;71.50;;;;;;4983591;28;20482;-60
2021/07/20 11:54:45;;;;;;;62.03;14.80;;;25.30;71.20;;;;;;4982314;28;20169;-59
2021/07/20 11:57:45;;;;;;;64.68;15.20;;;25.40;70.40;;;;;;4981672;28;20054;-60
2021/07/20 12:00:29;;;;;;;63.42;15.27;;;25.50;69.80;;;;;;4982044;28;20042;-60
2021/07/20 12:03:12;;;;;;;96.85;18.63;;;25.60;69.40;;;;;;4974105;28;20557;-59
2021/07/20 12:06:00;;;;;;;99.95;19.52;;;25.50;68.90;;;;;;4980671;28;20026;-60
2021/07/20 12:08:46;;;;;;;101.85;21.25;;;25.70;68.10;;;;;;4979162;28;20143;-60
2021/07/20 12:11:30;;;;;;;85.15;18.13;;;25.70;67.30;;;;;;4981468;28;20470;-60
2021/07/20 12:14:05;;;;;;;107.28;19.35;;;25.80;66.80;;;;;;4981921;28;20077;-60
2021/07/20 12:16:31;;;;;;;;;;;25.90;66.00;;;;;;4978478;28;20137;-60
2021/07/20 12:18:59;;;;;;;103.90;19.38;;;25.90;65.30;;;;;;4997350;28;20020;-60
2021/07/20 12:21:25;;;;;;;94.90;20.48;;;26.00;65.60;;;;;;4977357;28;20533;-60
2021/07/20 12:23:52;;;;;;;82.93;18.58;;;26.10;65.40;;;;;;4978533;28;20046;-60
2021/07/20 12:26:21;;;;;;;75.22;17.38;;;26.10;65.20;;;;;;4979006;28;20096;-60
2021/07/20 12:28:47;;;;;;;70.03;19.27;;;26.20;65.20;;;;;;4977377;28;20345;-60
2021/07/20 12:31:12;;;;;;;114.63;21.13;;;26.20;65.40;;;;;;4979850;28;20703;-60
2021/07/20 12:33:45;;;;;;;119.10;21.85;;;26.30;65.40;;;;;;4976602;28;20038;-60
2021/07/20 12:36:11;;;;;;;92.15;19.75;;;26.40;65.10;;;;;;4961184;28;20046;-60
2021/07/20 12:38:36;;;;;;;111.60;20.42;;;26.40;64.30;;;;;;4977743;28;20145;-60
2021/07/20 12:41:20;;;;;;;63.30;18.42;;;26.50;63.80;;;;;;4981108;28;20125;-60
2021/07/20 12:43:46;;;;;;;80.13;19.42;;;26.50;62.60;;;;;;4979630;28;20041;-60
2021/07/20 12:46:17;;;;;;;75.18;19.00;;;26.60;62.70;;;;;;4994174;28;20046;-60
2021/07/20 12:48:48;;;;;;;65.95;18.20;;;26.60;62.80;;;;;;4978759;28;20053;-60
2021/07/20 12:51:14;;;;;;;60.17;18.45;;;26.70;62.30;;;;;;4977362;28;20062;-60